sensor_id;sensor_type;location;lat;lon;timestamp;P1;durP1;ratioP1;P2;durP2;ratioP2
82032;SDS011;71595;52.180;4.512;2023-08-21T00:01:51;5.32;;;2.03;;
82032;SDS011;71595;52.180;4.512;2023-08-21T00:04:17;7.18;;;2.13;;
82032;SDS011;71595;52.180;4.512;2023-08-21T00:06:42;4.47;;;2.53;;
82032;SDS011;71595;52.180;4.512;2023-08-21T00:09:08;7.80;;;3.05;;
82032;SDS011;71595;52.180;4.512;2023-08-21T00:11:34;5.15;;;2.75;;
82032;SDS011;71595;52.180;4.512;2023-08-21T00:13:59;6.53;;;2.50;;
82032;SDS011;71595;52.180;4.512;2023-08-21T00:16:25;6.35;;;2.50;;
82032;SDS011;71595;52.180;4.512;2023-08-21T00:18:51;6.22;;;2.90;;
82032;SDS011;71595;52.180;4.512;2023-08-21T00:21:17;5.18;;;2.38;;
82032;SDS011;71595;52.180;4.512;2023-08-21T00:23:44;8.18;;;2.97;;
82032;SDS011;71595;52.180;4.512;2023-08-21T00:26:09;6.68;;;2.63;;
82032;SDS011;71595;52.180;4.512;2023-08-21T00:28:34;6.30;;;2.50;;
82032;SDS011;71595;52.180;4.512;2023-08-21T00:31:00;5.80;;;2.28;;
82032;SDS011;71595;52.180;4.512;2023-08-21T00:33:28;7.03;;;2.55;;
82032;SDS011;71595;52.180;4.512;2023-08-21T00:35:55;6.47;;;2.38;;
82032;SDS011;71595;52.180;4.512;2023-08-21T00:38:20;6.50;;;2.53;;
82032;SDS011;71595;52.180;4.512;2023-08-21T00:40:46;7.38;;;2.22;;
82032;SDS011;71595;52.180;4.512;2023-08-21T00:43:11;7.93;;;2.95;;
82032;SDS011;71595;52.180;4.512;2023-08-21T00:45:36;7.03;;;2.65;;
82032;SDS011;71595;52.180;4.512;2023-08-21T00:48:06;5.82;;;2.30;;
82032;SDS011;71595;52.180;4.512;2023-08-21T00:50:32;4.30;;;2.20;;
82032;SDS011;71595;52.180;4.512;2023-08-21T00:52:57;4.82;;;1.95;;
82032;SDS011;71595;52.180;4.512;2023-08-21T00:55:23;5.43;;;2.28;;
82032;SDS011;71595;52.180;4.512;2023-08-21T00:57:48;6.32;;;2.33;;
82032;SDS011;71595;52.180;4.512;2023-08-21T01:00:14;7.65;;;2.30;;
82032;SDS011;71595;52.180;4.512;2023-08-21T01:02:40;6.03;;;2.35;;
82032;SDS011;71595;52.180;4.512;2023-08-21T01:05:05;3.33;;;2.20;;
82032;SDS011;71595;52.180;4.512;2023-08-21T01:07:32;6.03;;;2.20;;
82032;SDS011;71595;52.180;4.512;2023-08-21T01:10:13;5.28;;;2.00;;
82032;SDS011;71595;52.180;4.512;2023-08-21T01:15:15;6.53;;;1.80;;
82032;SDS011;71595;52.180;4.512;2023-08-21T01:17:41;8.32;;;2.10;;
82032;SDS011;71595;52.180;4.512;2023-08-21T01:20:07;5.82;;;1.80;;
82032;SDS011;71595;52.180;4.512;2023-08-21T01:22:36;4.93;;;1.80;;
82032;SDS011;71595;52.180;4.512;2023-08-21T01:25:06;5.57;;;1.83;;
82032;SDS011;71595;52.180;4.512;2023-08-21T01:27:33;11.80;;;3.22;;
82032;SDS011;71595;52.180;4.512;2023-08-21T01:30:00;3.72;;;1.67;;
82032;SDS011;71595;52.180;4.512;2023-08-21T01:32:33;5.25;;;1.90;;
82032;SDS011;71595;52.180;4.512;2023-08-21T01:35:05;8.93;;;1.85;;
82032;SDS011;71595;52.180;4.512;2023-08-21T01:37:31;11.98;;;2.75;;
82032;SDS011;71595;52.180;4.512;2023-08-21T01:39:58;5.05;;;1.92;;
82032;SDS011;71595;52.180;4.512;2023-08-21T01:42:23;6.10;;;1.90;;
82032;SDS011;71595;52.180;4.512;2023-08-21T01:44:49;5.30;;;1.80;;
82032;SDS011;71595;52.180;4.512;2023-08-21T01:47:14;7.30;;;1.80;;
82032;SDS011;71595;52.180;4.512;2023-08-21T01:49:40;7.15;;;2.10;;
82032;SDS011;71595;52.180;4.512;2023-08-21T01:52:05;4.28;;;1.70;;
82032;SDS011;71595;52.180;4.512;2023-08-21T01:54:31;4.50;;;1.92;;
82032;SDS011;71595;52.180;4.512;2023-08-21T01:56:56;4.55;;;1.95;;
82032;SDS011;71595;52.180;4.512;2023-08-21T01:59:22;4.97;;;1.55;;
82032;SDS011;71595;52.180;4.512;2023-08-21T02:01:49;5.82;;;1.90;;
82032;SDS011;71595;52.180;4.512;2023-08-21T02:04:14;7.18;;;1.70;;
82032;SDS011;71595;52.180;4.512;2023-08-21T02:06:40;3.53;;;1.60;;
82032;SDS011;71595;52.180;4.512;2023-08-21T02:09:05;4.78;;;1.90;;
82032;SDS011;71595;52.180;4.512;2023-08-21T02:11:30;4.35;;;1.67;;
82032;SDS011;71595;52.180;4.512;2023-08-21T02:13:56;3.75;;;1.35;;
82032;SDS011;71595;52.180;4.512;2023-08-21T02:16:21;4.13;;;1.83;;
82032;SDS011;71595;52.180;4.512;2023-08-21T02:18:47;3.97;;;1.85;;
82032;SDS011;71595;52.180;4.512;2023-08-21T02:21:12;3.85;;;1.67;;
82032;SDS011;71595;52.180;4.512;2023-08-21T02:23:38;5.45;;;1.65;;
82032;SDS011;71595;52.180;4.512;2023-08-21T02:26:03;5.05;;;1.88;;
82032;SDS011;71595;52.180;4.512;2023-08-21T02:28:28;3.85;;;1.50;;
82032;SDS011;71595;52.180;4.512;2023-08-21T02:30:54;3.78;;;1.48;;
82032;SDS011;71595;52.180;4.512;2023-08-21T02:33:19;4.28;;;1.50;;
82032;SDS011;71595;52.180;4.512;2023-08-21T02:35:44;3.60;;;1.55;;
82032;SDS011;71595;52.180;4.512;2023-08-21T02:38:10;5.78;;;1.70;;
82032;SDS011;71595;52.180;4.512;2023-08-21T02:40:35;4.55;;;1.73;;
82032;SDS011;71595;52.180;4.512;2023-08-21T02:43:01;4.15;;;1.75;;
82032;SDS011;71595;52.180;4.512;2023-08-21T02:45:26;4.63;;;1.80;;
82032;SDS011;71595;52.180;4.512;2023-08-21T02:47:51;4.25;;;1.77;;
82032;SDS011;71595;52.180;4.512;2023-08-21T02:50:17;4.43;;;1.88;;
82032;SDS011;71595;52.180;4.512;2023-08-21T02:52:42;5.13;;;1.80;;
82032;SDS011;71595;52.180;4.512;2023-08-21T02:55:08;4.28;;;1.70;;
82032;SDS011;71595;52.180;4.512;2023-08-21T02:57:33;6.57;;;1.50;;
82032;SDS011;71595;52.180;4.512;2023-08-21T02:59:59;3.03;;;1.50;;
82032;SDS011;71595;52.180;4.512;2023-08-21T03:02:24;5.90;;;1.60;;
82032;SDS011;71595;52.180;4.512;2023-08-21T03:04:50;3.58;;;1.52;;
82032;SDS011;71595;52.180;4.512;2023-08-21T03:07:16;4.05;;;1.70;;
82032;SDS011;71595;52.180;4.512;2023-08-21T03:09:44;4.75;;;1.58;;
82032;SDS011;71595;52.180;4.512;2023-08-21T03:12:11;8.80;;;2.33;;
82032;SDS011;71595;52.180;4.512;2023-08-21T03:14:36;3.20;;;1.60;;
82032;SDS011;71595;52.180;4.512;2023-08-21T03:17:01;4.32;;;1.65;;
82032;SDS011;71595;52.180;4.512;2023-08-21T03:19:27;4.45;;;1.48;;
82032;SDS011;71595;52.180;4.512;2023-08-21T03:21:52;5.35;;;1.98;;
82032;SDS011;71595;52.180;4.512;2023-08-21T03:24:17;4.05;;;1.55;;
82032;SDS011;71595;52.180;4.512;2023-08-21T03:26:43;3.03;;;1.55;;
82032;SDS011;71595;52.180;4.512;2023-08-21T03:29:09;3.95;;;1.70;;
82032;SDS011;71595;52.180;4.512;2023-08-21T03:31:34;3.20;;;1.52;;
82032;SDS011;71595;52.180;4.512;2023-08-21T03:33:59;4.50;;;1.67;;
82032;SDS011;71595;52.180;4.512;2023-08-21T03:36:25;3.95;;;1.60;;
82032;SDS011;71595;52.180;4.512;2023-08-21T03:38:57;4.82;;;1.55;;
82032;SDS011;71595;52.180;4.512;2023-08-21T03:41:23;3.92;;;1.52;;
82032;SDS011;71595;52.180;4.512;2023-08-21T03:43:48;4.13;;;1.95;;
82032;SDS011;71595;52.180;4.512;2023-08-21T03:46:13;3.60;;;1.40;;
82032;SDS011;71595;52.180;4.512;2023-08-21T03:48:39;3.92;;;1.70;;
82032;SDS011;71595;52.180;4.512;2023-08-21T03:51:04;3.45;;;1.80;;
82032;SDS011;71595;52.180;4.512;2023-08-21T03:53:29;4.65;;;1.85;;
82032;SDS011;71595;52.180;4.512;2023-08-21T03:55:55;5.78;;;1.90;;
82032;SDS011;71595;52.180;4.512;2023-08-21T03:58:20;4.78;;;1.70;;
82032;SDS011;71595;52.180;4.512;2023-08-21T04:00:46;3.05;;;1.55;;
82032;SDS011;71595;52.180;4.512;2023-08-21T04:03:11;3.85;;;1.67;;
82032;SDS011;71595;52.180;4.512;2023-08-21T04:05:37;5.85;;;1.77;;
82032;SDS011;71595;52.180;4.512;2023-08-21T04:08:02;2.97;;;1.75;;
82032;SDS011;71595;52.180;4.512;2023-08-21T04:10:28;7.53;;;1.80;;
82032;SDS011;71595;52.180;4.512;2023-08-21T04:12:53;4.45;;;1.60;;
82032;SDS011;71595;52.180;4.512;2023-08-21T04:15:19;4.88;;;1.80;;
82032;SDS011;71595;52.180;4.512;2023-08-21T04:17:44;6.80;;;2.10;;
82032;SDS011;71595;52.180;4.512;2023-08-21T04:20:09;5.20;;;2.08;;
82032;SDS011;71595;52.180;4.512;2023-08-21T04:22:35;5.22;;;2.10;;
82032;SDS011;71595;52.180;4.512;2023-08-21T04:25:01;4.35;;;2.00;;
82032;SDS011;71595;52.180;4.512;2023-08-21T04:27:26;4.40;;;1.98;;
82032;SDS011;71595;52.180;4.512;2023-08-21T04:29:52;3.78;;;1.92;;
82032;SDS011;71595;52.180;4.512;2023-08-21T04:32:18;6.03;;;2.00;;
82032;SDS011;71595;52.180;4.512;2023-08-21T04:34:43;7.68;;;2.17;;
82032;SDS011;71595;52.180;4.512;2023-08-21T04:37:09;5.32;;;2.08;;
82032;SDS011;71595;52.180;4.512;2023-08-21T04:39:34;3.97;;;1.88;;
82032;SDS011;71595;52.180;4.512;2023-08-21T04:42:01;4.30;;;1.70;;
82032;SDS011;71595;52.180;4.512;2023-08-21T04:44:27;5.13;;;1.95;;
82032;SDS011;71595;52.180;4.512;2023-08-21T04:46:52;3.63;;;1.80;;
82032;SDS011;71595;52.180;4.512;2023-08-21T04:49:17;6.25;;;1.90;;
82032;SDS011;71595;52.180;4.512;2023-08-21T04:51:43;6.20;;;2.38;;
82032;SDS011;71595;52.180;4.512;2023-08-21T04:54:08;7.05;;;1.85;;
82032;SDS011;71595;52.180;4.512;2023-08-21T04:56:33;5.50;;;1.90;;
82032;SDS011;71595;52.180;4.512;2023-08-21T04:58:59;5.65;;;2.10;;
82032;SDS011;71595;52.180;4.512;2023-08-21T05:01:24;6.95;;;2.20;;
82032;SDS011;71595;52.180;4.512;2023-08-21T05:03:50;4.72;;;2.00;;
82032;SDS011;71595;52.180;4.512;2023-08-21T05:06:16;8.68;;;2.30;;
82032;SDS011;71595;52.180;4.512;2023-08-21T05:08:41;4.65;;;2.20;;
82032;SDS011;71595;52.180;4.512;2023-08-21T05:11:07;4.38;;;2.28;;
82032;SDS011;71595;52.180;4.512;2023-08-21T05:13:32;3.90;;;2.08;;
82032;SDS011;71595;52.180;4.512;2023-08-21T05:15:58;7.22;;;2.53;;
82032;SDS011;71595;52.180;4.512;2023-08-21T05:18:24;4.97;;;2.38;;
82032;SDS011;71595;52.180;4.512;2023-08-21T05:20:50;4.80;;;2.20;;
82032;SDS011;71595;52.180;4.512;2023-08-21T05:23:16;5.53;;;2.17;;
82032;SDS011;71595;52.180;4.512;2023-08-21T05:25:42;4.00;;;2.20;;
82032;SDS011;71595;52.180;4.512;2023-08-21T05:28:08;4.10;;;2.33;;
82032;SDS011;71595;52.180;4.512;2023-08-21T05:30:35;4.70;;;2.58;;
82032;SDS011;71595;52.180;4.512;2023-08-21T05:33:01;6.60;;;2.33;;
82032;SDS011;71595;52.180;4.512;2023-08-21T05:35:26;4.18;;;2.72;;
82032;SDS011;71595;52.180;4.512;2023-08-21T05:37:52;7.20;;;2.45;;
82032;SDS011;71595;52.180;4.512;2023-08-21T05:40:17;7.10;;;2.70;;
82032;SDS011;71595;52.180;4.512;2023-08-21T05:42:42;6.28;;;2.67;;
82032;SDS011;71595;52.180;4.512;2023-08-21T05:45:08;6.43;;;2.50;;
82032;SDS011;71595;52.180;4.512;2023-08-21T05:47:33;6.97;;;2.40;;
82032;SDS011;71595;52.180;4.512;2023-08-21T05:49:59;5.05;;;2.45;;
82032;SDS011;71595;52.180;4.512;2023-08-21T05:52:24;5.32;;;2.50;;
82032;SDS011;71595;52.180;4.512;2023-08-21T05:54:50;6.32;;;2.20;;
82032;SDS011;71595;52.180;4.512;2023-08-21T05:57:15;9.98;;;3.42;;
82032;SDS011;71595;52.180;4.512;2023-08-21T05:59:44;5.43;;;2.50;;
82032;SDS011;71595;52.180;4.512;2023-08-21T06:02:11;6.43;;;2.75;;
82032;SDS011;71595;52.180;4.512;2023-08-21T06:04:40;8.20;;;2.75;;
82032;SDS011;71595;52.180;4.512;2023-08-21T06:07:06;8.23;;;2.70;;
82032;SDS011;71595;52.180;4.512;2023-08-21T06:09:32;6.75;;;2.55;;
82032;SDS011;71595;52.180;4.512;2023-08-21T06:11:59;9.55;;;3.00;;
82032;SDS011;71595;52.180;4.512;2023-08-21T06:14:26;8.40;;;2.42;;
82032;SDS011;71595;52.180;4.512;2023-08-21T06:17:02;9.15;;;3.03;;
82032;SDS011;71595;52.180;4.512;2023-08-21T06:19:28;4.97;;;2.75;;
82032;SDS011;71595;52.180;4.512;2023-08-21T06:21:57;6.20;;;2.80;;
82032;SDS011;71595;52.180;4.512;2023-08-21T06:24:23;10.00;;;4.25;;
82032;SDS011;71595;52.180;4.512;2023-08-21T06:26:56;11.25;;;3.20;;
82032;SDS011;71595;52.180;4.512;2023-08-21T06:29:22;8.45;;;3.63;;
82032;SDS011;71595;52.180;4.512;2023-08-21T06:31:47;13.57;;;3.60;;
82032;SDS011;71595;52.180;4.512;2023-08-21T06:34:12;6.75;;;3.40;;
82032;SDS011;71595;52.180;4.512;2023-08-21T06:36:38;5.15;;;2.95;;
82032;SDS011;71595;52.180;4.512;2023-08-21T06:39:04;8.55;;;3.13;;
82032;SDS011;71595;52.180;4.512;2023-08-21T06:41:30;13.88;;;3.22;;
82032;SDS011;71595;52.180;4.512;2023-08-21T06:43:55;8.23;;;4.05;;
82032;SDS011;71595;52.180;4.512;2023-08-21T06:46:22;9.43;;;3.33;;
82032;SDS011;71595;52.180;4.512;2023-08-21T06:48:47;9.13;;;3.58;;
82032;SDS011;71595;52.180;4.512;2023-08-21T06:51:12;12.18;;;4.07;;
82032;SDS011;71595;52.180;4.512;2023-08-21T06:53:38;9.73;;;3.45;;
82032;SDS011;71595;52.180;4.512;2023-08-21T06:56:03;7.45;;;3.30;;
82032;SDS011;71595;52.180;4.512;2023-08-21T06:58:29;9.50;;;4.10;;
82032;SDS011;71595;52.180;4.512;2023-08-21T07:00:54;7.70;;;3.00;;
82032;SDS011;71595;52.180;4.512;2023-08-21T07:03:20;10.02;;;3.28;;
82032;SDS011;71595;52.180;4.512;2023-08-21T07:05:46;9.82;;;3.20;;
82032;SDS011;71595;52.180;4.512;2023-08-21T07:08:18;11.75;;;3.22;;
82032;SDS011;71595;52.180;4.512;2023-08-21T07:10:43;8.40;;;3.63;;
82032;SDS011;71595;52.180;4.512;2023-08-21T07:13:09;8.15;;;3.58;;
82032;SDS011;71595;52.180;4.512;2023-08-21T07:15:34;22.17;;;4.45;;
82032;SDS011;71595;52.180;4.512;2023-08-21T07:17:59;12.00;;;3.78;;
82032;SDS011;71595;52.180;4.512;2023-08-21T07:20:25;8.45;;;3.55;;
82032;SDS011;71595;52.180;4.512;2023-08-21T07:22:50;10.05;;;3.42;;
82032;SDS011;71595;52.180;4.512;2023-08-21T07:25:16;8.32;;;3.10;;
82032;SDS011;71595;52.180;4.512;2023-08-21T07:27:41;11.68;;;2.67;;
82032;SDS011;71595;52.180;4.512;2023-08-21T07:30:06;8.38;;;3.45;;
82032;SDS011;71595;52.180;4.512;2023-08-21T07:32:32;9.35;;;2.65;;
82032;SDS011;71595;52.180;4.512;2023-08-21T07:34:58;9.18;;;2.63;;
82032;SDS011;71595;52.180;4.512;2023-08-21T07:37:23;7.72;;;2.97;;
82032;SDS011;71595;52.180;4.512;2023-08-21T07:39:48;8.35;;;2.75;;
82032;SDS011;71595;52.180;4.512;2023-08-21T07:42:14;11.45;;;3.00;;
82032;SDS011;71595;52.180;4.512;2023-08-21T07:44:39;11.70;;;3.08;;
82032;SDS011;71595;52.180;4.512;2023-08-21T07:47:05;11.48;;;3.08;;
82032;SDS011;71595;52.180;4.512;2023-08-21T07:49:31;9.20;;;2.55;;
82032;SDS011;71595;52.180;4.512;2023-08-21T07:51:57;13.52;;;3.10;;
82032;SDS011;71595;52.180;4.512;2023-08-21T07:54:23;12.57;;;2.72;;
82032;SDS011;71595;52.180;4.512;2023-08-21T07:56:49;6.30;;;2.20;;
82032;SDS011;71595;52.180;4.512;2023-08-21T07:59:15;9.35;;;2.50;;
82032;SDS011;71595;52.180;4.512;2023-08-21T08:01:40;6.53;;;2.45;;
82032;SDS011;71595;52.180;4.512;2023-08-21T08:04:06;5.82;;;2.20;;
82032;SDS011;71595;52.180;4.512;2023-08-21T08:06:31;8.90;;;2.40;;
82032;SDS011;71595;52.180;4.512;2023-08-21T08:08:57;5.20;;;2.05;;
82032;SDS011;71595;52.180;4.512;2023-08-21T08:11:22;7.53;;;2.40;;
82032;SDS011;71595;52.180;4.512;2023-08-21T08:13:48;6.93;;;2.35;;
82032;SDS011;71595;52.180;4.512;2023-08-21T08:16:13;8.10;;;2.38;;
82032;SDS011;71595;52.180;4.512;2023-08-21T08:18:39;5.60;;;2.38;;
82032;SDS011;71595;52.180;4.512;2023-08-21T08:21:04;9.25;;;2.15;;
82032;SDS011;71595;52.180;4.512;2023-08-21T08:23:29;7.57;;;2.17;;
82032;SDS011;71595;52.180;4.512;2023-08-21T08:25:55;8.07;;;2.20;;
82032;SDS011;71595;52.180;4.512;2023-08-21T08:28:20;6.70;;;1.90;;
82032;SDS011;71595;52.180;4.512;2023-08-21T08:30:46;7.38;;;1.80;;
82032;SDS011;71595;52.180;4.512;2023-08-21T08:33:11;7.43;;;1.70;;
82032;SDS011;71595;52.180;4.512;2023-08-21T08:35:36;8.20;;;2.20;;
82032;SDS011;71595;52.180;4.512;2023-08-21T08:38:02;8.23;;;1.70;;
82032;SDS011;71595;52.180;4.512;2023-08-21T08:40:28;8.52;;;1.83;;
82032;SDS011;71595;52.180;4.512;2023-08-21T08:42:53;6.00;;;1.67;;
82032;SDS011;71595;52.180;4.512;2023-08-21T08:45:23;6.25;;;1.80;;
82032;SDS011;71595;52.180;4.512;2023-08-21T08:47:55;6.68;;;2.00;;
82032;SDS011;71595;52.180;4.512;2023-08-21T08:50:23;5.25;;;1.88;;
82032;SDS011;71595;52.180;4.512;2023-08-21T08:52:49;5.03;;;1.90;;
82032;SDS011;71595;52.180;4.512;2023-08-21T08:55:14;4.88;;;1.65;;
82032;SDS011;71595;52.180;4.512;2023-08-21T08:57:39;7.75;;;1.50;;
82032;SDS011;71595;52.180;4.512;2023-08-21T09:00:05;4.75;;;1.80;;
82032;SDS011;71595;52.180;4.512;2023-08-21T09:02:31;5.95;;;1.50;;
82032;SDS011;71595;52.180;4.512;2023-08-21T09:04:57;5.40;;;1.80;;
82032;SDS011;71595;52.180;4.512;2023-08-21T09:07:23;8.00;;;1.70;;
82032;SDS011;71595;52.180;4.512;2023-08-21T09:09:50;7.35;;;1.80;;
82032;SDS011;71595;52.180;4.512;2023-08-21T09:12:17;6.32;;;1.55;;
82032;SDS011;71595;52.180;4.512;2023-08-21T09:14:44;5.45;;;1.75;;
82032;SDS011;71595;52.180;4.512;2023-08-21T09:17:10;5.82;;;1.60;;
82032;SDS011;71595;52.180;4.512;2023-08-21T09:19:35;4.05;;;1.40;;
82032;SDS011;71595;52.180;4.512;2023-08-21T09:22:16;7.53;;;2.38;;
82032;SDS011;71595;52.180;4.512;2023-08-21T09:25:00;4.55;;;1.58;;
82032;SDS011;71595;52.180;4.512;2023-08-21T09:27:35;5.05;;;1.42;;
82032;SDS011;71595;52.180;4.512;2023-08-21T09:30:09;3.50;;;1.30;;
82032;SDS011;71595;52.180;4.512;2023-08-21T09:32:51;4.22;;;1.67;;
82032;SDS011;71595;52.180;4.512;2023-08-21T09:35:18;5.25;;;1.70;;
82032;SDS011;71595;52.180;4.512;2023-08-21T09:37:46;6.72;;;1.58;;
82032;SDS011;71595;52.180;4.512;2023-08-21T09:40:12;3.13;;;2.08;;
82032;SDS011;71595;52.180;4.512;2023-08-21T09:42:38;5.35;;;1.27;;
82032;SDS011;71595;52.180;4.512;2023-08-21T09:45:04;3.97;;;1.52;;
82032;SDS011;71595;52.180;4.512;2023-08-21T09:47:30;5.03;;;1.30;;
82032;SDS011;71595;52.180;4.512;2023-08-21T09:49:56;2.72;;;1.20;;
82032;SDS011;71595;52.180;4.512;2023-08-21T09:52:23;7.15;;;1.50;;
82032;SDS011;71595;52.180;4.512;2023-08-21T09:54:49;5.25;;;1.60;;
82032;SDS011;71595;52.180;4.512;2023-08-21T09:57:18;3.00;;;1.10;;
82032;SDS011;71595;52.180;4.512;2023-08-21T09:59:47;5.35;;;1.60;;
82032;SDS011;71595;52.180;4.512;2023-08-21T10:02:14;2.83;;;1.33;;
82032;SDS011;71595;52.180;4.512;2023-08-21T10:04:40;3.13;;;1.20;;
82032;SDS011;71595;52.180;4.512;2023-08-21T10:07:10;3.38;;;1.20;;
82032;SDS011;71595;52.180;4.512;2023-08-21T10:09:37;6.38;;;1.30;;
82032;SDS011;71595;52.180;4.512;2023-08-21T10:12:05;4.03;;;1.10;;
82032;SDS011;71595;52.180;4.512;2023-08-21T10:14:33;3.67;;;1.27;;
82032;SDS011;71595;52.180;4.512;2023-08-21T10:16:59;3.63;;;1.70;;
82032;SDS011;71595;52.180;4.512;2023-08-21T10:19:30;4.72;;;1.63;;
82032;SDS011;71595;52.180;4.512;2023-08-21T10:24:27;2.92;;;1.30;;
82032;SDS011;71595;52.180;4.512;2023-08-21T10:26:53;2.78;;;1.25;;
82032;SDS011;71595;52.180;4.512;2023-08-21T10:29:22;3.33;;;1.50;;
82032;SDS011;71595;52.180;4.512;2023-08-21T10:31:58;2.42;;;1.08;;
82032;SDS011;71595;52.180;4.512;2023-08-21T10:34:30;2.70;;;1.20;;
82032;SDS011;71595;52.180;4.512;2023-08-21T10:39:25;4.10;;;1.30;;
82032;SDS011;71595;52.180;4.512;2023-08-21T10:41:55;4.03;;;1.20;;
82032;SDS011;71595;52.180;4.512;2023-08-21T10:49:56;3.40;;;1.13;;
82032;SDS011;71595;52.180;4.512;2023-08-21T10:52:30;4.22;;;1.40;;
82032;SDS011;71595;52.180;4.512;2023-08-21T10:54:59;4.20;;;1.02;;
82032;SDS011;71595;52.180;4.512;2023-08-21T10:57:26;2.80;;;1.10;;
82032;SDS011;71595;52.180;4.512;2023-08-21T11:00:03;4.15;;;0.93;;
82032;SDS011;71595;52.180;4.512;2023-08-21T11:02:34;2.92;;;1.05;;
82032;SDS011;71595;52.180;4.512;2023-08-21T11:05:00;3.47;;;1.08;;
82032;SDS011;71595;52.180;4.512;2023-08-21T11:07:28;3.03;;;1.10;;
82032;SDS011;71595;52.180;4.512;2023-08-21T11:09:54;5.10;;;1.30;;
82032;SDS011;71595;52.180;4.512;2023-08-21T11:15:26;3.20;;;1.02;;
82032;SDS011;71595;52.180;4.512;2023-08-21T11:17:56;4.43;;;1.17;;
82032;SDS011;71595;52.180;4.512;2023-08-21T11:20:27;2.92;;;1.20;;
82032;SDS011;71595;52.180;4.512;2023-08-21T11:22:56;2.80;;;1.05;;
82032;SDS011;71595;52.180;4.512;2023-08-21T11:25:27;2.85;;;1.10;;
82032;SDS011;71595;52.180;4.512;2023-08-21T11:27:54;2.97;;;1.20;;
82032;SDS011;71595;52.180;4.512;2023-08-21T11:30:21;3.50;;;1.17;;
82032;SDS011;71595;52.180;4.512;2023-08-21T11:32:48;2.50;;;1.20;;
82032;SDS011;71595;52.180;4.512;2023-08-21T11:35:15;3.28;;;1.10;;
82032;SDS011;71595;52.180;4.512;2023-08-21T11:37:44;3.08;;;1.10;;
82032;SDS011;71595;52.180;4.512;2023-08-21T11:42:39;2.90;;;1.17;;
82032;SDS011;71595;52.180;4.512;2023-08-21T11:45:05;3.00;;;1.27;;
82032;SDS011;71595;52.180;4.512;2023-08-21T11:47:31;3.60;;;1.20;;
82032;SDS011;71595;52.180;4.512;2023-08-21T11:53:02;5.78;;;1.20;;
82032;SDS011;71595;52.180;4.512;2023-08-21T11:55:28;3.00;;;1.23;;
82032;SDS011;71595;52.180;4.512;2023-08-21T11:57:54;1.75;;;1.00;;
82032;SDS011;71595;52.180;4.512;2023-08-21T12:00:26;3.67;;;1.20;;
82032;SDS011;71595;52.180;4.512;2023-08-21T12:05:42;3.95;;;1.17;;
82032;SDS011;71595;52.180;4.512;2023-08-21T12:08:07;3.47;;;1.30;;
82032;SDS011;71595;52.180;4.512;2023-08-21T12:10:33;3.70;;;1.15;;
82032;SDS011;71595;52.180;4.512;2023-08-21T12:12:58;2.75;;;1.15;;
82032;SDS011;71595;52.180;4.512;2023-08-21T12:15:23;3.10;;;1.08;;
82032;SDS011;71595;52.180;4.512;2023-08-21T12:17:49;2.30;;;1.00;;
82032;SDS011;71595;52.180;4.512;2023-08-21T12:20:14;2.53;;;1.00;;
82032;SDS011;71595;52.180;4.512;2023-08-21T12:22:40;4.50;;;1.00;;
82032;SDS011;71595;52.180;4.512;2023-08-21T12:25:07;7.28;;;1.35;;
82032;SDS011;71595;52.180;4.512;2023-08-21T12:27:33;4.72;;;1.33;;
82032;SDS011;71595;52.180;4.512;2023-08-21T12:29:59;4.03;;;0.93;;
82032;SDS011;71595;52.180;4.512;2023-08-21T12:32:24;5.65;;;1.23;;
82032;SDS011;71595;52.180;4.512;2023-08-21T12:34:49;4.40;;;1.30;;
82032;SDS011;71595;52.180;4.512;2023-08-21T12:37:15;3.47;;;1.20;;
82032;SDS011;71595;52.180;4.512;2023-08-21T12:39:40;3.80;;;1.13;;
82032;SDS011;71595;52.180;4.512;2023-08-21T12:42:05;3.47;;;1.02;;
82032;SDS011;71595;52.180;4.512;2023-08-21T12:44:33;3.17;;;1.23;;
82032;SDS011;71595;52.180;4.512;2023-08-21T12:46:58;3.28;;;1.23;;
82032;SDS011;71595;52.180;4.512;2023-08-21T12:49:24;4.30;;;1.30;;
82032;SDS011;71595;52.180;4.512;2023-08-21T12:51:49;2.72;;;0.90;;
82032;SDS011;71595;52.180;4.512;2023-08-21T12:54:15;2.35;;;1.08;;
82032;SDS011;71595;52.180;4.512;2023-08-21T12:56:40;3.28;;;1.20;;
82032;SDS011;71595;52.180;4.512;2023-08-21T12:59:05;3.25;;;1.08;;
82032;SDS011;71595;52.180;4.512;2023-08-21T13:01:31;2.90;;;1.00;;
82032;SDS011;71595;52.180;4.512;2023-08-21T13:03:59;4.15;;;1.10;;
82032;SDS011;71595;52.180;4.512;2023-08-21T13:06:24;4.68;;;1.20;;
82032;SDS011;71595;52.180;4.512;2023-08-21T13:08:50;4.18;;;1.10;;
82032;SDS011;71595;52.180;4.512;2023-08-21T13:11:15;2.72;;;1.20;;
82032;SDS011;71595;52.180;4.512;2023-08-21T13:13:41;3.65;;;1.10;;
82032;SDS011;71595;52.180;4.512;2023-08-21T13:16:06;3.53;;;1.30;;
82032;SDS011;71595;52.180;4.512;2023-08-21T13:18:32;3.83;;;1.58;;
82032;SDS011;71595;52.180;4.512;2023-08-21T13:20:57;4.10;;;1.50;;
82032;SDS011;71595;52.180;4.512;2023-08-21T13:23:23;2.72;;;1.20;;
82032;SDS011;71595;52.180;4.512;2023-08-21T13:25:48;2.63;;;1.25;;
82032;SDS011;71595;52.180;4.512;2023-08-21T13:28:14;5.00;;;1.20;;
82032;SDS011;71595;52.180;4.512;2023-08-21T13:30:39;3.25;;;1.05;;
82032;SDS011;71595;52.180;4.512;2023-08-21T13:33:05;2.35;;;1.20;;
82032;SDS011;71595;52.180;4.512;2023-08-21T13:35:31;3.30;;;1.30;;
82032;SDS011;71595;52.180;4.512;2023-08-21T13:37:57;4.95;;;1.35;;
82032;SDS011;71595;52.180;4.512;2023-08-21T13:40:23;2.78;;;1.00;;
82032;SDS011;71595;52.180;4.512;2023-08-21T13:42:49;4.60;;;1.40;;
82032;SDS011;71595;52.180;4.512;2023-08-21T13:45:17;4.75;;;1.58;;
82032;SDS011;71595;52.180;4.512;2023-08-21T13:47:44;4.45;;;1.50;;
82032;SDS011;71595;52.180;4.512;2023-08-21T13:50:15;4.45;;;1.73;;
82032;SDS011;71595;52.180;4.512;2023-08-21T13:52:42;4.78;;;1.60;;
82032;SDS011;71595;52.180;4.512;2023-08-21T13:55:09;4.25;;;1.40;;
82032;SDS011;71595;52.180;4.512;2023-08-21T13:57:36;4.03;;;1.40;;
82032;SDS011;71595;52.180;4.512;2023-08-21T14:00:03;4.50;;;1.35;;
82032;SDS011;71595;52.180;4.512;2023-08-21T14:02:33;4.82;;;1.33;;
82032;SDS011;71595;52.180;4.512;2023-08-21T14:04:59;5.22;;;1.48;;
82032;SDS011;71595;52.180;4.512;2023-08-21T14:07:25;3.95;;;1.45;;
82032;SDS011;71595;52.180;4.512;2023-08-21T14:09:51;5.18;;;1.70;;
82032;SDS011;71595;52.180;4.512;2023-08-21T14:12:16;4.35;;;1.27;;
82032;SDS011;71595;52.180;4.512;2023-08-21T14:14:41;3.95;;;1.45;;
82032;SDS011;71595;52.180;4.512;2023-08-21T14:17:07;3.33;;;1.13;;
82032;SDS011;71595;52.180;4.512;2023-08-21T14:19:32;4.63;;;1.40;;
82032;SDS011;71595;52.180;4.512;2023-08-21T14:21:58;5.15;;;1.38;;
82032;SDS011;71595;52.180;4.512;2023-08-21T14:24:24;3.55;;;1.20;;
82032;SDS011;71595;52.180;4.512;2023-08-21T14:26:49;5.07;;;1.75;;
82032;SDS011;71595;52.180;4.512;2023-08-21T14:29:15;3.75;;;1.50;;
82032;SDS011;71595;52.180;4.512;2023-08-21T14:31:40;2.45;;;1.30;;
82032;SDS011;71595;52.180;4.512;2023-08-21T14:34:05;4.82;;;1.60;;
82032;SDS011;71595;52.180;4.512;2023-08-21T14:36:31;3.70;;;1.33;;
82032;SDS011;71595;52.180;4.512;2023-08-21T14:38:56;4.50;;;1.30;;
82032;SDS011;71595;52.180;4.512;2023-08-21T14:41:22;4.10;;;1.50;;
82032;SDS011;71595;52.180;4.512;2023-08-21T14:43:47;3.60;;;1.40;;
82032;SDS011;71595;52.180;4.512;2023-08-21T14:46:12;6.43;;;1.40;;
82032;SDS011;71595;52.180;4.512;2023-08-21T14:48:38;3.80;;;1.30;;
82032;SDS011;71595;52.180;4.512;2023-08-21T14:51:04;4.47;;;1.30;;
82032;SDS011;71595;52.180;4.512;2023-08-21T14:53:29;5.60;;;1.30;;
82032;SDS011;71595;52.180;4.512;2023-08-21T14:55:55;7.03;;;1.95;;
82032;SDS011;71595;52.180;4.512;2023-08-21T14:58:21;2.92;;;1.35;;
82032;SDS011;71595;52.180;4.512;2023-08-21T15:00:47;3.80;;;1.30;;
82032;SDS011;71595;52.180;4.512;2023-08-21T15:03:12;4.22;;;1.42;;
82032;SDS011;71595;52.180;4.512;2023-08-21T15:05:38;5.47;;;1.45;;
82032;SDS011;71595;52.180;4.512;2023-08-21T15:08:03;4.68;;;2.25;;